LOG86BX EGPR-EGPL

Flight info

Callsign LOG86BX
Flight time 0h 15m
Altitude 2000
Route BEN
Aircraft DHC6/L-SDFGHRWY/L

Departure

Time 2026-05-06 13:42
Airport Barra Airport (EGPR)

Arrival

Time 2026-05-06 13:57
Airport Benbecula Airport (EGPL)
Time Latitude Longitude Altitude Speed Heading
2026-05-06 13:32 57.02551 -7.44861 5 ft 0 kts 39°
2026-05-06 13:41 57.02564 -7.44838 5 ft 7 kts 55°
2026-05-06 13:41 57.02555 -7.44734 5 ft 7 kts 135°
2026-05-06 13:41 57.02301 -7.44313 17 ft 88 kts 140°
2026-05-06 13:41 57.01825 -7.43498 342 ft 91 kts 136°
2026-05-06 13:42 57.01645 -7.42459 698 ft 89 kts 99°
2026-05-06 13:42 57.01813 -7.41224 862 ft 115 kts 68°
2026-05-06 13:42 57.02372 -7.40102 1158 ft 124 kts 41°
2026-05-06 13:42 57.03145 -7.39371 1455 ft 129 kts 26°
2026-05-06 13:43 57.03991 -7.38666 1661 ft 134 kts 29°
2026-05-06 13:43 57.04830 -7.37860 1874 ft 139 kts 31°
2026-05-06 13:43 57.05706 -7.36985 2000 ft 149 kts 31°
2026-05-06 13:43 57.06649 -7.36030 2032 ft 160 kts 31°
2026-05-06 13:44 57.07646 -7.35012 2022 ft 167 kts 32°
2026-05-06 13:44 57.08669 -7.33963 2010 ft 170 kts 32°
2026-05-06 13:44 57.09694 -7.32908 2003 ft 169 kts 32°
2026-05-06 13:44 57.10713 -7.31856 1999 ft 167 kts 32°
2026-05-06 13:45 57.11624 -7.30566 2006 ft 164 kts 45°
2026-05-06 13:45 57.13220 -7.27594 2002 ft 164 kts 50°
2026-05-06 13:45 57.13997 -7.26067 1997 ft 164 kts 50°
2026-05-06 13:46 57.14867 -7.24706 1999 ft 165 kts 37°
2026-05-06 13:46 57.15899 -7.23772 2009 ft 166 kts 24°
2026-05-06 13:46 57.16992 -7.23066 2006 ft 167 kts 20°
2026-05-06 13:46 57.18115 -7.22491 2006 ft 167 kts 15°
2026-05-06 13:47 57.19255 -7.22086 2005 ft 168 kts 11°
2026-05-06 13:47 57.20410 -7.21769 2004 ft 168 kts
2026-05-06 13:47 57.21570 -7.21477 2002 ft 168 kts
2026-05-06 13:47 57.22728 -7.21187 2003 ft 168 kts
2026-05-06 13:48 57.23860 -7.20902 2001 ft 168 kts
2026-05-06 13:48 57.25044 -7.20606 2003 ft 168 kts
2026-05-06 13:48 57.26198 -7.20315 2002 ft 168 kts
2026-05-06 13:48 57.27357 -7.20020 2002 ft 168 kts
2026-05-06 13:49 57.28514 -7.19722 2002 ft 168 kts
2026-05-06 13:49 57.29674 -7.19516 2004 ft 168 kts
2026-05-06 13:49 57.30846 -7.19504 2005 ft 169 kts 360°
2026-05-06 13:49 57.32018 -7.19586 2003 ft 169 kts 358°
2026-05-06 13:50 57.33183 -7.19851 2003 ft 169 kts 350°
2026-05-06 13:50 57.34342 -7.20178 2006 ft 169 kts 354°
2026-05-06 13:50 57.35506 -7.20401 2003 ft 169 kts 355°
2026-05-06 13:50 57.36675 -7.20603 2002 ft 169 kts 355°
2026-05-06 13:51 57.37845 -7.20799 2002 ft 169 kts 355°
2026-05-06 13:51 57.39015 -7.20990 2002 ft 169 kts 356°
2026-05-06 13:51 57.40186 -7.21179 2003 ft 169 kts 356°
2026-05-06 13:51 57.41352 -7.21367 2003 ft 169 kts 356°
2026-05-06 13:52 57.42525 -7.21531 2002 ft 169 kts 358°
2026-05-06 13:52 57.43696 -7.21622 2002 ft 167 kts
2026-05-06 13:52 57.44805 -7.21330 1863 ft 159 kts 13°
2026-05-06 13:52 57.45506 -7.20917 1700 ft 157 kts 22°
2026-05-06 13:53 57.46518 -7.20167 1453 ft 157 kts 23°
2026-05-06 13:53 57.47587 -7.19774 1208 ft 157 kts
2026-05-06 13:53 57.48632 -7.20060 1048 ft 151 kts 337°
2026-05-06 13:53 57.49405 -7.21227 1010 ft 137 kts 313°
2026-05-06 13:54 57.50054 -7.22458 984 ft 130 kts 312°
2026-05-06 13:54 57.50662 -7.23600 1099 ft 107 kts 313°
2026-05-06 13:54 57.51088 -7.24586 1039 ft 93 kts 295°
2026-05-06 13:54 57.51111 -7.25753 868 ft 89 kts 258°
2026-05-06 13:55 57.51009 -7.26831 794 ft 82 kts 252°
2026-05-06 13:55 57.50871 -7.27866 773 ft 83 kts 249°
2026-05-06 13:55 57.50689 -7.28881 735 ft 84 kts 243°
2026-05-06 13:55 57.50430 -7.29855 681 ft 81 kts 236°
2026-05-06 13:56 57.50151 -7.30727 594 ft 75 kts 231°
2026-05-06 13:56 57.49859 -7.31498 474 ft 71 kts 227°
2026-05-06 13:56 57.49568 -7.32223 363 ft 70 kts 226°
2026-05-06 13:56 57.49274 -7.32948 271 ft 72 kts 227°
2026-05-06 13:57 57.48990 -7.33705 220 ft 70 kts 227°
2026-05-06 13:57 57.48702 -7.34461 100 ft 69 kts 228°
2026-05-06 13:57 57.48457 -7.35130 24 ft 52 kts 227°
2026-05-06 13:57 57.48300 -7.35529 24 ft 35 kts 234°
2026-05-06 13:58 57.48165 -7.35906 24 ft 36 kts 234°
2026-05-06 13:58 57.48024 -7.36285 24 ft 36 kts 233°
2026-05-06 13:58 57.47887 -7.36667 24 ft 33 kts 234°
2026-05-06 13:58 57.47781 -7.36937 24 ft 22 kts 233°
2026-05-06 13:59 57.47710 -7.37086 24 ft 7 kts 180°
2026-05-06 13:59 57.47692 -7.37001 24 ft 4 kts 53°
2026-05-06 13:59 57.47708 -7.37084 24 ft 12 kts 245°
2026-05-06 13:59 57.47651 -7.37235 24 ft 10 kts 231°
2026-05-06 14:00 57.47597 -7.37210 24 ft 16 kts 148°
2026-05-06 14:00 57.47504 -7.37098 24 ft 10 kts 129°
2026-05-06 14:00 57.47529 -7.36963 24 ft 15 kts 67°
2026-05-06 14:00 57.47531 -7.36873 24 ft 0 kts 92°